Time;durP1;ratioP1;P1;durP2;ratioP2;P2;SDS_P1;SDS_P2;PMS_P1;PMS_P2;Temp;Humidity;BMP_temperature;BMP_pressure;BME280_temperature;BME280_humidity;BME280_pressure;Samples;Min_cycle;Max_cycle;Signal;HPM_P1;HPM_P2
2024/04/07 00:00:19;;;;;;;13.95;9.77;;;;;;;;;;5032524;28;20103;-53
2024/04/07 00:02:46;;;;;;;14.00;9.95;;;;;;;;;;5031179;28;20020;-56
2024/04/07 00:05:12;;;;;;;14.00;9.88;;;;;;;;;;5030963;28;20026;-55
2024/04/07 00:07:38;;;;;;;14.00;9.77;;;;;;;;;;5033756;28;20022;-50
2024/04/07 00:10:04;;;;;;;14.02;9.93;;;;;;;;;;5037491;28;20483;-50
2024/04/07 00:12:30;;;;;;;13.93;9.77;;;;;;;;;;5037171;28;20029;-51
2024/04/07 00:14:56;;;;;;;14.07;10.10;;;;;;;;;;5034877;28;20395;-55
2024/04/07 00:17:22;;;;;;;14.00;10.00;;;;;;;;;;5031247;28;20032;-51
2024/04/07 00:19:48;;;;;;;14.07;9.98;;;;;;;;;;5032371;28;20492;-51
2024/04/07 00:22:14;;;;;;;13.98;9.82;;;;;;;;;;5032282;28;20026;-52
2024/04/07 00:24:40;;;;;;;14.10;10.25;;;;;;;;;;5030782;28;20104;-54
2024/04/07 00:27:06;;;;;;;14.10;10.10;;;;;;;;;;5031050;28;20618;-54
2024/04/07 00:29:32;;;;;;;14.02;10.05;;;;;;;;;;5032054;28;20018;-53
2024/04/07 00:31:59;;;;;;;14.05;10.05;;;;;;;;;;5032086;28;20037;-52
2024/04/07 00:34:25;;;;;;;14.02;10.02;;;;;;;;;;5031571;28;20035;-54
2024/04/07 00:36:50;;;;;;;14.05;9.90;;;;;;;;;;5031929;28;20018;-54
2024/04/07 00:39:16;;;;;;;14.00;9.88;;;;;;;;;;5024201;28;20026;-55
2024/04/07 00:41:43;;;;;;;14.05;10.00;;;;;;;;;;5030532;28;20025;-54
2024/04/07 00:44:09;;;;;;;14.07;10.07;;;;;;;;;;5031106;28;20037;-52
2024/04/07 00:46:35;;;;;;;14.13;10.20;;;;;;;;;;5032303;28;20036;-54
2024/04/07 00:49:01;;;;;;;14.10;10.07;;;;;;;;;;5032332;28;20037;-52
2024/04/07 00:51:27;;;;;;;14.10;10.10;;;;;;;;;;5031790;28;20030;-52
2024/04/07 00:53:54;;;;;;;14.13;10.15;;;;;;;;;;5025938;28;20046;-53
2024/04/07 00:56:20;;;;;;;14.15;10.20;;;;;;;;;;5027450;28;20036;-54
2024/04/07 00:58:48;;;;;;;14.20;10.32;;;;;;;;;;5031677;28;20168;-53
2024/04/07 01:01:14;;;;;;;14.23;10.38;;;;;;;;;;5031697;28;20021;-52
2024/04/07 01:03:40;;;;;;;14.27;10.48;;;;;;;;;;5031278;28;20029;-49
2024/04/07 01:06:06;;;;;;;14.27;10.60;;;;;;;;;;5031723;28;20025;-52
2024/04/07 01:08:32;;;;;;;14.18;10.30;;;;;;;;;;5030296;28;20514;-54
2024/04/07 01:10:58;;;;;;;14.13;10.18;;;;;;;;;;5031253;28;20128;-53
2024/04/07 01:13:27;;;;;;;14.18;10.20;;;;;;;;;;5030787;28;20064;-52
2024/04/07 01:15:53;;;;;;;14.15;10.25;;;;;;;;;;5024608;28;20049;-52
2024/04/07 01:18:19;;;;;;;14.20;10.38;;;;;;;;;;5030033;28;20064;-54
2024/04/07 01:20:46;;;;;;;14.20;10.45;;;;;;;;;;5031613;28;20437;-54
2024/04/07 01:23:18;;;;;;;14.20;10.40;;;;;;;;;;5029751;28;20095;-55
2024/04/07 01:25:44;;;;;;;14.13;10.25;;;;;;;;;;5030930;28;20033;-53
2024/04/07 01:28:11;;;;;;;14.20;10.40;;;;;;;;;;5029278;28;20030;-55
2024/04/07 01:30:37;;;;;;;14.10;10.13;;;;;;;;;;5029710;28;20037;-54
2024/04/07 01:33:03;;;;;;;14.05;10.00;;;;;;;;;;5030908;28;20018;-51
2024/04/07 01:35:29;;;;;;;14.10;10.10;;;;;;;;;;5030967;28;20637;-51
2024/04/07 01:37:56;;;;;;;14.20;10.25;;;;;;;;;;5031141;28;20018;-53
2024/04/07 01:40:22;;;;;;;14.20;10.45;;;;;;;;;;5031012;28;20099;-52
2024/04/07 01:42:48;;;;;;;14.30;10.60;;;;;;;;;;5029645;28;20223;-53
2024/04/07 01:45:15;;;;;;;14.27;10.80;;;;;;;;;;5029566;28;20116;-50
2024/04/07 01:47:41;;;;;;;14.27;10.60;;;;;;;;;;5029351;28;20495;-51
2024/04/07 01:50:07;;;;;;;14.27;10.60;;;;;;;;;;5030877;28;20041;-51
2024/04/07 01:52:33;;;;;;;14.18;10.40;;;;;;;;;;5030565;28;20112;-52
2024/04/07 01:54:59;;;;;;;14.40;10.90;;;;;;;;;;5030291;28;20109;-55
2024/04/07 01:57:26;;;;;;;14.30;10.70;;;;;;;;;;5030624;28;20032;-54
2024/04/07 01:59:52;;;;;;;14.35;10.73;;;;;;;;;;5030798;28;20452;-52
2024/04/07 02:02:19;;;;;;;14.30;10.65;;;;;;;;;;5029145;28;20450;-53
2024/04/07 02:04:49;;;;;;;14.27;10.60;;;;;;;;;;5030312;28;20045;-54
2024/04/07 02:07:15;;;;;;;14.30;10.57;;;;;;;;;;5030686;28;20108;-51
2024/04/07 02:09:41;;;;;;;14.30;10.50;;;;;;;;;;5030622;28;20100;-53
2024/04/07 02:12:07;;;;;;;14.50;11.00;;;;;;;;;;5030743;28;20535;-52
2024/04/07 02:14:33;;;;;;;14.43;10.93;;;;;;;;;;5030530;28;20395;-52
2024/04/07 02:16:59;;;;;;;14.27;10.48;;;;;;;;;;5030766;28;20021;-54
2024/04/07 02:19:25;;;;;;;14.27;10.60;;;;;;;;;;5030680;28;20022;-53
2024/04/07 02:21:52;;;;;;;14.40;10.80;;;;;;;;;;5030421;28;20056;-50
2024/04/07 02:24:17;;;;;;;14.30;10.70;;;;;;;;;;5028864;28;20613;-56
2024/04/07 02:26:46;;;;;;;14.35;10.60;;;;;;;;;;5030524;28;20041;-52
2024/04/07 02:29:13;;;;;;;14.60;11.10;;;;;;;;;;5030455;28;20025;-54
2024/04/07 02:31:39;;;;;;;14.35;10.80;;;;;;;;;;5030191;28;20071;-53
2024/04/07 02:34:05;;;;;;;14.43;11.00;;;;;;;;;;5029872;28;20112;-52
2024/04/07 02:36:34;;;;;;;14.38;10.90;;;;;;;;;;5030147;28;20172;-53
2024/04/07 02:39:00;;;;;;;14.48;11.05;;;;;;;;;;5030174;28;20024;-54
2024/04/07 02:41:26;;;;;;;14.90;11.70;;;;;;;;;;5029980;28;20025;-52
2024/04/07 02:43:51;;;;;;;14.40;10.88;;;;;;;;;;5029733;28;20124;-56
2024/04/07 02:49:02;;;;;;;14.30;10.60;;;;;;;;;;5030056;28;20036;-49
2024/04/07 02:51:28;;;;;;;14.30;10.73;;;;;;;;;;5029739;28;20109;-55
2024/04/07 02:53:54;;;;;;;14.50;10.90;;;;;;;;;;5028561;28;20549;-55
2024/04/07 02:56:20;;;;;;;14.70;11.25;;;;;;;;;;5029932;28;20087;-55
2024/04/07 02:58:46;;;;;;;14.25;10.52;;;;;;;;;;5029914;28;20376;-49
2024/04/07 03:01:12;;;;;;;14.80;10.70;;;;;;;;;;5028714;28;20083;-56
2024/04/07 03:03:38;;;;;;;14.45;11.05;;;;;;;;;;5029619;28;20025;-54
2024/04/07 03:06:05;;;;;;;14.40;10.80;;;;;;;;;;5029890;28;20372;-54
2024/04/07 03:08:30;;;;;;;14.30;10.60;;;;;;;;;;5032983;28;20044;-54
2024/04/07 03:10:57;;;;;;;14.20;10.40;;;;;;;;;;5032561;28;20034;-51
2024/04/07 03:13:23;;;;;;;14.25;10.55;;;;;;;;;;5033567;28;20484;-55
2024/04/07 03:15:49;;;;;;;14.40;10.40;;;;;;;;;;5033863;28;20036;-56
2024/04/07 03:18:15;;;;;;;14.20;10.30;;;;;;;;;;5033867;28;20670;-53
2024/04/07 03:20:41;;;;;;;14.80;10.60;;;;;;;;;;5033713;28;20017;-56
2024/04/07 03:23:07;;;;;;;14.30;10.70;;;;;;;;;;5033676;28;20590;-49
2024/04/07 03:25:33;;;;;;;14.20;10.25;;;;;;;;;;5033865;28;20033;-52
2024/04/07 03:27:59;;;;;;;14.30;10.50;;;;;;;;;;5033710;28;20060;-54
2024/04/07 03:30:26;;;;;;;14.30;10.50;;;;;;;;;;5033599;28;20029;-54
2024/04/07 03:32:52;;;;;;;14.13;10.25;;;;;;;;;;5033433;28;20029;-56
2024/04/07 03:35:18;;;;;;;14.30;10.75;;;;;;;;;;5033452;28;20416;-54
2024/04/07 03:37:44;;;;;;;14.95;10.88;;;;;;;;;;5033339;28;20052;-52
2024/04/07 03:40:10;;;;;;;20.67;10.88;;;;;;;;;;5033630;28;20560;-53
2024/04/07 03:42:36;;;;;;;14.40;10.70;;;;;;;;;;5033393;28;20028;-50
2024/04/07 03:45:02;;;;;;;14.13;10.23;;;;;;;;;;5031817;28;20025;-54
2024/04/07 03:47:28;;;;;;;14.25;10.43;;;;;;;;;;5033108;28;20049;-55
2024/04/07 03:49:54;;;;;;;14.05;9.98;;;;;;;;;;5032826;28;20369;-53
2024/04/07 03:52:20;;;;;;;14.60;10.52;;;;;;;;;;5031469;28;20116;-52
2024/04/07 03:54:48;;;;;;;14.25;10.40;;;;;;;;;;5032852;28;20021;-55
2024/04/07 03:57:14;;;;;;;15.77;10.93;;;;;;;;;;5033041;28;20044;-50
2024/04/07 03:59:40;;;;;;;14.20;10.30;;;;;;;;;;5032953;28;20030;-55
2024/04/07 04:02:06;;;;;;;13.90;9.55;;;;;;;;;;5033050;28;20061;-55
2024/04/07 04:04:32;;;;;;;14.02;9.90;;;;;;;;;;5032738;28;20057;-51
2024/04/07 04:06:58;;;;;;;15.68;10.82;;;;;;;;;;5031644;28;20120;-54
2024/04/07 04:09:24;;;;;;;14.30;9.95;;;;;;;;;;5032826;28;20079;-56
2024/04/07 04:11:50;;;;;;;14.00;9.90;;;;;;;;;;5032743;28;20079;-56
2024/04/07 04:14:16;;;;;;;14.10;10.07;;;;;;;;;;5032630;28;20030;-53
2024/04/07 04:16:43;;;;;;;14.20;10.20;;;;;;;;;;5032673;28;20029;-56
2024/04/07 04:19:09;;;;;;;15.07;10.23;;;;;;;;;;5031249;28;20021;-56
2024/04/07 04:21:35;;;;;;;14.10;9.88;;;;;;;;;;5032605;28;20032;-55
2024/04/07 04:24:01;;;;;;;13.90;9.40;;;;;;;;;;5032068;28;20443;-55
2024/04/07 04:26:27;;;;;;;13.90;9.45;;;;;;;;;;5032608;28;20495;-55
2024/04/07 04:28:53;;;;;;;13.77;9.25;;;;;;;;;;5027830;28;20026;-49
2024/04/07 04:31:19;;;;;;;13.75;9.20;;;;;;;;;;5012454;28;20586;-49
2024/04/07 04:33:47;;;;;;;16.23;10.90;;;;;;;;;;5012286;28;20022;-49
2024/04/07 04:36:13;;;;;;;13.90;9.60;;;;;;;;;;5019016;28;20027;-51
2024/04/07 04:38:39;;;;;;;13.82;9.32;;;;;;;;;;5031048;28;20026;-53
2024/04/07 04:41:05;;;;;;;15.25;9.40;;;;;;;;;;5032250;28;20475;-56
2024/04/07 04:43:31;;;;;;;13.80;9.20;;;;;;;;;;5030738;28;20032;-53
2024/04/07 04:46:14;;;;;;;13.75;9.20;;;;;;;;;;5014837;28;20064;-51
2024/04/07 04:48:40;;;;;;;14.52;9.70;;;;;;;;;;5012577;28;20026;-55
2024/04/07 04:51:06;;;;;;;14.20;10.38;;;;;;;;;;5010851;28;20511;-53
2024/04/07 04:53:32;;;;;;;13.80;9.30;;;;;;;;;;5012125;28;20032;-50
2024/04/07 04:56:02;;;;;;;14.00;9.50;;;;;;;;;;5012262;28;20022;-49
2024/04/07 04:58:29;;;;;;;15.55;10.20;;;;;;;;;;5011089;28;20065;-52
2024/04/07 05:00:55;;;;;;;13.70;9.07;;;;;;;;;;5012668;28;20402;-55
2024/04/07 05:03:22;;;;;;;13.77;9.15;;;;;;;;;;5030325;28;20337;-55
2024/04/07 05:05:47;;;;;;;13.90;9.40;;;;;;;;;;5031796;28;20037;-55
2024/04/07 05:08:14;;;;;;;13.73;9.10;;;;;;;;;;5031780;28;20018;-50
2024/04/07 05:10:40;;;;;;;19.30;9.73;;;;;;;;;;5031540;28;20388;-52
2024/04/07 05:13:06;;;;;;;13.70;9.02;;;;;;;;;;5031424;28;20063;-56
2024/04/07 05:15:32;;;;;;;13.77;9.05;;;;;;;;;;5031426;28;20029;-50
2024/04/07 05:17:58;;;;;;;15.02;9.95;;;;;;;;;;5031869;28;20036;-50
2024/04/07 05:20:24;;;;;;;13.77;9.07;;;;;;;;;;5030426;28;20487;-55
2024/04/07 05:22:50;;;;;;;13.68;8.93;;;;;;;;;;5030014;28;20027;-57
2024/04/07 05:25:16;;;;;;;13.70;9.02;;;;;;;;;;5031350;28;20492;-53
2024/04/07 05:27:42;;;;;;;13.75;9.15;;;;;;;;;;5031692;28;20394;-58
2024/04/07 05:30:10;;;;;;;13.80;9.35;;;;;;;;;;5030654;28;20089;-56
2024/04/07 05:32:36;;;;;;;14.90;10.35;;;;;;;;;;5031114;28;20109;-56
2024/04/07 05:35:04;;;;;;;14.00;9.80;;;;;;;;;;5030906;28;20495;-53
2024/04/07 05:37:30;;;;;;;13.90;9.48;;;;;;;;;;5029110;22;20466;-57
2024/04/07 05:39:56;;;;;;;13.73;9.20;;;;;;;;;;5010424;28;20036;-54
2024/04/07 05:42:26;;;;;;;13.80;9.30;;;;;;;;;;5009988;28;20025;-57
2024/04/07 05:44:52;;;;;;;13.90;9.48;;;;;;;;;;5010291;28;20407;-56
2024/04/07 05:47:18;;;;;;;13.88;9.40;;;;;;;;;;5012948;28;20029;-58
2024/04/07 05:49:44;;;;;;;13.80;9.20;;;;;;;;;;5010797;28;20038;-55
2024/04/07 05:52:10;;;;;;;13.80;9.27;;;;;;;;;;5010412;28;20570;-56
2024/04/07 05:54:36;;;;;;;13.85;9.40;;;;;;;;;;5010139;28;20076;-55
2024/04/07 05:57:02;;;;;;;13.77;9.32;;;;;;;;;;5010512;28;20392;-54
2024/04/07 05:59:28;;;;;;;13.90;9.40;;;;;;;;;;5010145;28;20018;-57
2024/04/07 06:01:54;;;;;;;13.90;9.45;;;;;;;;;;5010041;28;20026;-54
2024/04/07 06:04:20;;;;;;;13.70;9.00;;;;;;;;;;5010204;28;20026;-52
2024/04/07 06:06:47;;;;;;;13.75;9.13;;;;;;;;;;5008618;28;20026;-56
2024/04/07 06:09:14;;;;;;;13.75;9.10;;;;;;;;;;5010152;28;20044;-55
2024/04/07 06:11:40;;;;;;;13.68;8.93;;;;;;;;;;5008580;28;20022;-55
2024/04/07 06:14:07;;;;;;;13.55;8.60;;;;;;;;;;5009925;28;20022;-54
2024/04/07 06:16:33;;;;;;;13.73;9.00;;;;;;;;;;5009558;28;20026;-55
2024/04/07 06:18:59;;;;;;;13.82;9.30;;;;;;;;;;5009844;28;20029;-55
2024/04/07 06:21:25;;;;;;;13.60;8.80;;;;;;;;;;5009850;28;20042;-52
2024/04/07 06:23:51;;;;;;;13.90;9.40;;;;;;;;;;5009679;28;20089;-55
2024/04/07 06:26:17;;;;;;;13.88;9.40;;;;;;;;;;5009676;28;20105;-55
2024/04/07 06:28:43;;;;;;;15.05;9.30;;;;;;;;;;5008572;28;20589;-53
2024/04/07 06:31:09;;;;;;;13.63;8.85;;;;;;;;;;5009487;28;20113;-54
2024/04/07 06:33:36;;;;;;;13.70;8.93;;;;;;;;;;5009560;28;20022;-51
2024/04/07 06:36:02;;;;;;;13.77;9.10;;;;;;;;;;5009406;28;20032;-58
2024/04/07 06:38:28;;;;;;;13.73;9.00;;;;;;;;;;5009852;28;20475;-56
2024/04/07 06:40:54;;;;;;;13.68;9.00;;;;;;;;;;5007941;28;20053;-52
2024/04/07 06:43:20;;;;;;;13.77;9.18;;;;;;;;;;5007749;28;20033;-53
2024/04/07 06:45:46;;;;;;;13.85;9.38;;;;;;;;;;5009755;28;20030;-57
2024/04/07 06:48:12;;;;;;;13.80;9.30;;;;;;;;;;5010415;28;20064;-57
2024/04/07 06:50:38;;;;;;;13.90;9.40;;;;;;;;;;5011778;28;20041;-57
2024/04/07 06:53:04;;;;;;;13.90;9.57;;;;;;;;;;5012847;28;20132;-59
2024/04/07 06:55:30;;;;;;;13.98;9.70;;;;;;;;;;5012977;28;20022;-55
2024/04/07 06:57:56;;;;;;;13.95;9.70;;;;;;;;;;5010491;28;20018;-57
2024/04/07 07:00:22;;;;;;;13.98;9.70;;;;;;;;;;5009857;28;20036;-61
2024/04/07 07:02:48;;;;;;;13.95;9.60;;;;;;;;;;5009305;28;20290;-54
2024/04/07 07:05:14;;;;;;;13.95;9.60;;;;;;;;;;5007696;28;20741;-54
2024/04/07 07:07:40;;;;;;;14.65;10.07;;;;;;;;;;5009126;28;20064;-54
2024/04/07 07:10:06;;;;;;;13.93;9.65;;;;;;;;;;5030346;28;20076;-54
2024/04/07 07:12:35;;;;;;;13.93;9.63;;;;;;;;;;5009367;28;20026;-55
2024/04/07 07:15:03;;;;;;;13.95;9.70;;;;;;;;;;5009721;28;20080;-57
2024/04/07 07:17:29;;;;;;;13.80;9.30;;;;;;;;;;5009422;28;20022;-57
2024/04/07 07:19:55;;;;;;;13.82;9.40;;;;;;;;;;5009593;28;20707;-54
2024/04/07 07:22:21;;;;;;;15.05;9.93;;;;;;;;;;5009570;28;20037;-55
2024/04/07 07:24:47;;;;;;;13.82;9.48;;;;;;;;;;5009516;28;20045;-56
2024/04/07 07:27:13;;;;;;;15.88;10.27;;;;;;;;;;5009738;28;20443;-55
2024/04/07 07:29:39;;;;;;;13.90;9.50;;;;;;;;;;5009190;28;20018;-54
2024/04/07 07:32:06;;;;;;;13.98;9.70;;;;;;;;;;5009514;28;20030;-54
2024/04/07 07:34:32;;;;;;;15.57;10.77;;;;;;;;;;5024938;28;20022;-57
2024/04/07 07:36:58;;;;;;;13.98;9.75;;;;;;;;;;5009584;28;20057;-56
2024/04/07 07:39:24;;;;;;;14.02;9.90;;;;;;;;;;5009465;28;20026;-54
2024/04/07 07:41:50;;;;;;;14.02;9.90;;;;;;;;;;5009254;28;20172;-56
2024/04/07 07:44:16;;;;;;;14.20;10.48;;;;;;;;;;5009015;28;20160;-55
2024/04/07 07:46:42;;;;;;;13.90;9.60;;;;;;;;;;5009162;28;20093;-55
2024/04/07 07:49:08;;;;;;;13.90;9.68;;;;;;;;;;5009116;28;20515;-57
2024/04/07 07:51:34;;;;;;;13.85;9.55;;;;;;;;;;5008997;28;20029;-51
2024/04/07 07:54:00;;;;;;;13.95;9.70;;;;;;;;;;5010721;28;20022;-54
2024/04/07 07:56:26;;;;;;;14.00;9.80;;;;;;;;;;5012829;28;20404;-54
2024/04/07 07:58:52;;;;;;;13.93;9.82;;;;;;;;;;5012781;28;20026;-51
2024/04/07 08:01:18;;;;;;;14.13;10.30;;;;;;;;;;5012259;28;20030;-53
2024/04/07 08:03:44;;;;;;;14.20;10.10;;;;;;;;;;5012608;28;20054;-54
2024/04/07 08:06:10;;;;;;;13.90;9.70;;;;;;;;;;5010605;28;20492;-51
2024/04/07 08:08:36;;;;;;;13.88;9.60;;;;;;;;;;5012048;28;20681;-53
2024/04/07 08:11:03;;;;;;;13.98;9.73;;;;;;;;;;5011835;28;20109;-54
2024/04/07 08:13:29;;;;;;;14.02;10.02;;;;;;;;;;5012042;28;20018;-56
2024/04/07 08:15:55;;;;;;;13.98;9.82;;;;;;;;;;5012104;28;20026;-56
2024/04/07 08:18:21;;;;;;;14.20;10.40;;;;;;;;;;5012223;28;20107;-52
2024/04/07 08:20:47;;;;;;;15.05;11.02;;;;;;;;;;5011904;28;20033;-51
2024/04/07 08:23:15;;;;;;;15.50;11.13;;;;;;;;;;5011989;28;20029;-55
2024/04/07 08:25:42;;;;;;;13.98;9.85;;;;;;;;;;5012060;28;20030;-53
2024/04/07 08:28:08;;;;;;;14.27;10.32;;;;;;;;;;5012056;28;20079;-53
2024/04/07 08:30:34;;;;;;;13.98;9.85;;;;;;;;;;5010484;28;20026;-51
2024/04/07 08:33:00;;;;;;;13.90;9.65;;;;;;;;;;5011865;28;20037;-52
2024/04/07 08:35:26;;;;;;;13.95;9.68;;;;;;;;;;5011707;28;20348;-49
2024/04/07 08:37:53;;;;;;;13.90;9.55;;;;;;;;;;5010480;28;20033;-53
2024/04/07 08:40:19;;;;;;;14.07;10.02;;;;;;;;;;5011467;28;20030;-52
2024/04/07 08:42:45;;;;;;;14.00;10.05;;;;;;;;;;5011681;28;20028;-54
2024/04/07 08:45:12;;;;;;;14.00;9.80;;;;;;;;;;5011434;28;20029;-54
2024/04/07 08:47:39;;;;;;;13.90;9.60;;;;;;;;;;5011473;28;20069;-50
2024/04/07 08:50:10;;;;;;;14.20;10.30;;;;;;;;;;5011433;28;20030;-48
2024/04/07 08:52:37;;;;;;;14.00;9.90;;;;;;;;;;5011126;28;20377;-52
2024/04/07 08:55:05;;;;;;;14.13;10.27;;;;;;;;;;5011088;28;20041;-50
2024/04/07 08:57:31;;;;;;;14.40;10.40;;;;;;;;;;5011232;28;20543;-52
2024/04/07 08:59:59;;;;;;;14.80;10.30;;;;;;;;;;5009710;28;20041;-49
2024/04/07 09:02:29;;;;;;;14.10;10.02;;;;;;;;;;5010736;28;20050;-54
2024/04/07 09:04:55;;;;;;;13.93;9.60;;;;;;;;;;5009772;28;20124;-53
2024/04/07 09:07:21;;;;;;;13.88;9.60;;;;;;;;;;5010740;28;20030;-55
2024/04/07 09:09:47;;;;;;;13.98;9.75;;;;;;;;;;5011246;28;20040;-52
2024/04/07 09:12:13;;;;;;;13.95;9.80;;;;;;;;;;5010689;28;20038;-52
2024/04/07 09:14:44;;;;;;;14.30;10.55;;;;;;;;;;5010734;28;20108;-53
2024/04/07 09:17:11;;;;;;;14.07;10.13;;;;;;;;;;5010967;28;20050;-49
2024/04/07 09:19:38;;;;;;;14.23;10.45;;;;;;;;;;5010687;28;20101;-54
2024/04/07 09:22:05;;;;;;;15.05;11.88;;;;;;;;;;5010464;28;20034;-52
2024/04/07 09:24:32;;;;;;;14.40;10.70;;;;;;;;;;5010413;28;20026;-53
2024/04/07 09:26:59;;;;;;;14.20;10.48;;;;;;;;;;5010498;28;20030;-52
2024/04/07 09:29:28;;;;;;;14.15;10.25;;;;;;;;;;5010584;28;20109;-56
2024/04/07 09:31:54;;;;;;;;;;;;;;;;;;5010729;28;20580;-52
2024/04/07 09:34:20;;;;;;;14.05;10.00;;;;;;;;;;5010256;28;19906;-53
2024/04/07 09:36:45;;;;;;;14.10;10.20;;;;;;;;;;5010236;28;20496;-52
2024/04/07 09:39:13;;;;;;;14.05;10.10;;;;;;;;;;5010307;28;20032;-54
2024/04/07 09:41:40;;;;;;;14.07;10.00;;;;;;;;;;5010415;28;20110;-52
2024/04/07 09:44:06;;;;;;;14.10;10.30;;;;;;;;;;5010315;28;20499;-55
2024/04/07 09:46:37;;;;;;;14.10;10.13;;;;;;;;;;5009961;28;20034;-54
2024/04/07 09:49:04;;;;;;;14.15;10.32;;;;;;;;;;5010195;28;20033;-53
2024/04/07 09:51:31;;;;;;;14.18;10.40;;;;;;;;;;5010261;28;20413;-54
2024/04/07 09:54:03;;;;;;;14.15;10.27;;;;;;;;;;5010133;28;20026;-52
2024/04/07 09:56:32;;;;;;;14.18;10.32;;;;;;;;;;5010038;28;20030;-53
2024/04/07 09:58:59;;;;;;;14.30;10.65;;;;;;;;;;5010525;28;20076;-57
2024/04/07 10:01:25;;;;;;;14.10;10.20;;;;;;;;;;5010777;28;20030;-54
2024/04/07 10:03:52;;;;;;;14.18;10.38;;;;;;;;;;5010446;28;20072;-49
2024/04/07 10:06:18;;;;;;;14.98;10.38;;;;;;;;;;5010181;28;20052;-52
2024/04/07 10:08:45;;;;;;;14.20;10.30;;;;;;;;;;5010113;28;20038;-54
2024/04/07 10:11:15;;;;;;;14.18;10.30;;;;;;;;;;5010329;28;20120;-52
2024/04/07 10:13:41;;;;;;;14.10;10.15;;;;;;;;;;5008487;28;20030;-54
2024/04/07 10:16:08;;;;;;;14.07;10.15;;;;;;;;;;5010043;28;20032;-51
2024/04/07 10:18:34;;;;;;;14.20;10.40;;;;;;;;;;5009991;28;20168;-52
2024/04/07 10:21:00;;;;;;;14.15;10.30;;;;;;;;;;5010059;28;20033;-53
2024/04/07 10:23:26;;;;;;;14.20;10.43;;;;;;;;;;5009866;28;20105;-52
2024/04/07 10:25:59;;;;;;;14.18;10.27;;;;;;;;;;5009798;28;20022;-51
2024/04/07 10:28:26;;;;;;;14.20;10.40;;;;;;;;;;5009586;28;20028;-53
2024/04/07 10:31:02;;;;;;;14.13;10.20;;;;;;;;;;5009621;28;20026;-53
2024/04/07 10:33:29;;;;;;;14.13;10.18;;;;;;;;;;5008609;28;20109;-54
2024/04/07 10:35:56;;;;;;;14.00;10.00;;;;;;;;;;5009404;28;20148;-54
2024/04/07 10:38:23;;;;;;;14.02;9.93;;;;;;;;;;5009662;28;20029;-55
2024/04/07 10:40:51;;;;;;;14.05;10.00;;;;;;;;;;5009409;28;20270;-52
2024/04/07 10:43:18;;;;;;;14.18;10.23;;;;;;;;;;5008417;28;20030;-56
2024/04/07 10:45:44;;;;;;;14.00;9.88;;;;;;;;;;5007972;28;20072;-53
2024/04/07 10:48:10;;;;;;;14.07;10.07;;;;;;;;;;5007832;28;20088;-54
2024/04/07 10:50:36;;;;;;;14.18;10.50;;;;;;;;;;5014496;28;20057;-56
2024/04/07 10:53:06;;;;;;;14.10;10.30;;;;;;;;;;5013396;28;20513;-54
2024/04/07 10:55:33;;;;;;;14.15;10.30;;;;;;;;;;5009958;28;20018;-50
2024/04/07 10:57:59;;;;;;;14.25;10.57;;;;;;;;;;5008939;28;20100;-51
2024/04/07 11:00:25;;;;;;;14.30;10.70;;;;;;;;;;5009867;28;20100;-53
2024/04/07 11:02:52;;;;;;;14.60;10.68;;;;;;;;;;5009498;28;20472;-52
2024/04/07 11:05:19;;;;;;;14.20;10.40;;;;;;;;;;5009305;28;20022;-53
2024/04/07 11:07:45;;;;;;;14.15;10.30;;;;;;;;;;5007868;28;20041;-53
2024/04/07 11:10:11;;;;;;;14.45;10.30;;;;;;;;;;5009645;28;20034;-53
2024/04/07 11:12:42;;;;;;;14.20;10.30;;;;;;;;;;5008706;28;20037;-50
2024/04/07 11:15:14;;;;;;;14.30;10.75;;;;;;;;;;5009407;28;20037;-48
2024/04/07 11:17:42;;;;;;;14.30;10.55;;;;;;;;;;5008986;28;20033;-55
2024/04/07 11:20:08;;;;;;;14.20;10.30;;;;;;;;;;5009402;28;20612;-52
2024/04/07 11:22:34;;;;;;;14.27;10.48;;;;;;;;;;5008936;28;20101;-52
2024/04/07 11:25:01;;;;;;;14.10;10.20;;;;;;;;;;5009102;28;20105;-48
2024/04/07 11:27:27;;;;;;;14.30;10.70;;;;;;;;;;5008210;28;20037;-52
2024/04/07 11:29:54;;;;;;;14.10;10.30;;;;;;;;;;5012926;28;20091;-52
2024/04/07 11:32:20;;;;;;;14.25;10.52;;;;;;;;;;5013142;28;20189;-52
2024/04/07 11:34:46;;;;;;;14.13;10.18;;;;;;;;;;5012872;28;20026;-51
2024/04/07 11:37:12;;;;;;;14.35;10.70;;;;;;;;;;5036451;22;20050;-54
2024/04/07 11:39:38;;;;;;;14.23;10.50;;;;;;;;;;5005106;28;20030;-56
2024/04/07 11:42:05;;;;;;;14.20;10.40;;;;;;;;;;5012718;28;20029;-54
2024/04/07 11:44:31;;;;;;;14.40;10.90;;;;;;;;;;5011334;28;20504;-57
2024/04/07 11:46:58;;;;;;;14.75;10.50;;;;;;;;;;5011930;28;20033;-54
2024/04/07 11:49:24;;;;;;;14.30;10.73;;;;;;;;;;5009519;28;20038;-57
2024/04/07 11:51:50;;;;;;;14.32;10.88;;;;;;;;;;5006145;28;20038;-56
2024/04/07 11:54:16;;;;;;;14.80;11.40;;;;;;;;;;5007781;28;20022;-52
2024/04/07 11:56:45;;;;;;;14.52;11.25;;;;;;;;;;5004655;28;20030;-56
2024/04/07 11:59:11;;;;;;;14.38;10.85;;;;;;;;;;5012095;28;20388;-53
2024/04/07 12:01:37;;;;;;;14.20;10.60;;;;;;;;;;4666789;28;10000896;-59
2024/04/07 12:04:03;;;;;;;14.20;10.52;;;;;;;;;;5007492;28;20247;-58
2024/04/07 12:06:29;;;;;;;15.55;11.02;;;;;;;;;;5009546;28;20037;-60
2024/04/07 12:08:55;;;;;;;14.30;10.77;;;;;;;;;;5007283;28;20027;-60
2024/04/07 12:11:21;;;;;;;14.45;11.10;;;;;;;;;;5007465;28;20111;-60
2024/04/07 12:13:47;;;;;;;14.40;11.13;;;;;;;;;;5009486;28;20018;-60
2024/04/07 12:16:13;;;;;;;14.93;11.60;;;;;;;;;;5007607;28;20401;-60
2024/04/07 12:18:39;;;;;;;14.43;11.02;;;;;;;;;;5007128;28;20034;-59
2024/04/07 12:21:05;;;;;;;14.25;10.68;;;;;;;;;;5011084;28;20057;-60
2024/04/07 12:23:31;;;;;;;14.30;10.60;;;;;;;;;;5012929;28;20033;-62
2024/04/07 12:25:57;;;;;;;14.23;10.60;;;;;;;;;;5011474;28;20029;-61
2024/04/07 12:28:23;;;;;;;14.88;11.00;;;;;;;;;;5012814;28;20041;-60
2024/04/07 12:30:52;;;;;;;14.38;10.88;;;;;;;;;;5012930;28;20030;-61
2024/04/07 12:33:18;;;;;;;14.30;11.00;;;;;;;;;;5012516;28;20489;-60
2024/04/07 12:35:44;;;;;;;14.32;10.80;;;;;;;;;;5007361;28;20030;-60
2024/04/07 12:38:10;;;;;;;14.35;10.80;;;;;;;;;;5011730;28;20575;-60
2024/04/07 12:40:36;;;;;;;14.38;11.02;;;;;;;;;;5008112;28;20036;-58
2024/04/07 12:43:02;;;;;;;14.20;10.60;;;;;;;;;;5007132;28;20033;-60
2024/04/07 12:45:28;;;;;;;14.40;11.10;;;;;;;;;;4998397;28;20424;-60
2024/04/07 12:47:54;;;;;;;14.40;11.05;;;;;;;;;;5009146;28;20135;-59
2024/04/07 12:50:20;;;;;;;14.30;10.88;;;;;;;;;;5009538;28;20539;-64
2024/04/07 12:52:47;;;;;;;14.35;10.80;;;;;;;;;;5005423;28;20029;-62
2024/04/07 12:55:13;;;;;;;14.38;10.98;;;;;;;;;;5008300;28;20048;-62
2024/04/07 12:57:41;;;;;;;14.27;10.70;;;;;;;;;;5009371;28;20088;-62
2024/04/07 13:00:14;;;;;;;14.25;10.57;;;;;;;;;;5008249;28;20026;-60
2024/04/07 13:02:40;;;;;;;14.30;10.70;;;;;;;;;;5009113;28;20026;-61
2024/04/07 13:05:07;;;;;;;14.25;10.60;;;;;;;;;;5008728;28;20483;-61
2024/04/07 13:07:33;;;;;;;14.20;10.50;;;;;;;;;;5008594;28;20033;-61
2024/04/07 13:09:59;;;;;;;14.18;10.50;;;;;;;;;;5009175;28;20032;-62
2024/04/07 13:12:25;;;;;;;14.20;10.48;;;;;;;;;;5008358;28;20396;-61
2024/04/07 13:14:52;;;;;;;14.30;10.65;;;;;;;;;;5008764;28;20030;-61
2024/04/07 13:17:18;;;;;;;14.30;10.90;;;;;;;;;;5008139;28;20056;-63
2024/04/07 13:19:44;;;;;;;14.27;10.60;;;;;;;;;;5008975;28;20018;-61
2024/04/07 13:22:10;;;;;;;14.38;10.98;;;;;;;;;;5008552;28;20036;-61
2024/04/07 13:24:36;;;;;;;14.40;11.07;;;;;;;;;;5010843;28;20435;-61
2024/04/07 13:27:02;;;;;;;15.68;11.90;;;;;;;;;;5010195;28;20033;-61
2024/04/07 13:29:30;;;;;;;14.25;10.93;;;;;;;;;;4720171;28;10000535;-60
2024/04/07 13:31:56;;;;;;;14.52;11.25;;;;;;;;;;5006643;28;20239;-57
2024/04/07 13:34:22;;;;;;;14.50;11.23;;;;;;;;;;5008646;28;20037;-60
2024/04/07 13:36:48;;;;;;;18.17;12.48;;;;;;;;;;5009012;28;20021;-61
2024/04/07 13:39:14;;;;;;;14.27;10.90;;;;;;;;;;5008336;28;20100;-61
2024/04/07 13:41:40;;;;;;;14.35;11.05;;;;;;;;;;5008412;28;20088;-61
2024/04/07 13:44:07;;;;;;;14.70;11.40;;;;;;;;;;5008076;28;20038;-60
2024/04/07 13:46:33;;;;;;;14.57;11.50;;;;;;;;;;5008093;28;20146;-62
2024/04/07 13:48:59;;;;;;;14.60;11.40;;;;;;;;;;5008383;28;20120;-61
2024/04/07 13:51:26;;;;;;;15.50;11.40;;;;;;;;;;5007701;28;20034;-60
2024/04/07 13:53:52;;;;;;;14.60;11.40;;;;;;;;;;5008004;28;20076;-61
2024/04/07 13:56:18;;;;;;;14.55;11.35;;;;;;;;;;5009438;28;20018;-62
2024/04/07 13:58:44;;;;;;;14.50;11.30;;;;;;;;;;5010629;28;21383;-60
2024/04/07 14:01:10;;;;;;;14.60;11.30;;;;;;;;;;5008226;28;20129;-60
2024/04/07 14:03:36;;;;;;;14.70;11.90;;;;;;;;;;5006372;28;20105;-60
2024/04/07 14:06:02;;;;;;;14.60;11.52;;;;;;;;;;5007933;28;20040;-61
2024/04/07 14:08:29;;;;;;;14.60;11.48;;;;;;;;;;5007978;28;20030;-60
2024/04/07 14:10:55;;;;;;;14.55;11.40;;;;;;;;;;5010406;28;20022;-60
2024/04/07 14:13:21;;;;;;;14.60;11.50;;;;;;;;;;5010622;28;20026;-60
2024/04/07 14:15:47;;;;;;;14.57;11.40;;;;;;;;;;5010671;28;20111;-62
2024/04/07 14:18:13;;;;;;;14.50;11.32;;;;;;;;;;5010512;28;20037;-61